Time;durP1;ratioP1;P1;durP2;ratioP2;P2;SDS_P1;SDS_P2;PMS_P1;PMS_P2;Temp;Humidity;BMP_temperature;BMP_pressure;BME280_temperature;BME280_humidity;BME280_pressure;Samples;Min_cycle;Max_cycle;Signal;HPM_P1;HPM_P2
2021/03/18 00:01:43;;;;;;;1999.90;999.90;;;2.10;99.90;;;;;;4945266;29;20168;-84
2021/03/18 00:04:16;;;;;;;1999.90;999.90;;;2.20;99.90;;;;;;4944586;29;20195;-84
2021/03/18 00:06:44;;;;;;;1999.90;999.90;;;2.30;99.90;;;;;;4961420;29;20156;-84
2021/03/18 00:09:26;;;;;;;1999.90;999.90;;;2.30;99.90;;;;;;4944050;29;20234;-85
2021/03/18 00:11:57;;;;;;;1999.90;999.90;;;2.40;99.90;;;;;;4943866;29;20248;-84
2021/03/18 00:16:59;;;;;;;1999.90;999.90;;;2.40;99.90;;;;;;4958938;28;20215;-81
2021/03/18 00:19:27;;;;;;;1999.90;999.90;;;2.40;99.90;;;;;;4960427;29;20658;-81
2021/03/18 00:21:58;;;;;;;1999.90;999.90;;;2.40;99.90;;;;;;4960118;29;20191;-81
2021/03/18 00:24:23;;;;;;;1999.90;999.90;;;2.40;99.90;;;;;;4960150;28;20282;-81
2021/03/18 00:26:52;;;;;;;1999.90;999.90;;;2.40;99.90;;;;;;4960070;29;20191;-81
2021/03/18 00:29:20;;;;;;;1999.90;999.90;;;2.30;99.90;;;;;;4959878;29;20243;-81
2021/03/18 00:31:46;;;;;;;1999.90;999.90;;;2.20;99.90;;;;;;4960129;29;20168;-81
2021/03/18 00:34:14;;;;;;;1999.90;999.90;;;2.10;99.90;;;;;;4960073;28;20184;-81
2021/03/18 00:36:45;;;;;;;1999.90;999.90;;;2.10;99.90;;;;;;4959735;29;20676;-81
2021/03/18 00:39:11;;;;;;;1999.90;999.90;;;1.90;99.90;;;;;;4960645;28;20149;-81
2021/03/18 00:41:40;;;;;;;1999.90;999.90;;;1.80;99.90;;;;;;4962974;29;20558;-81
2021/03/18 00:44:11;;;;;;;1999.90;999.90;;;1.70;99.90;;;;;;4963525;28;20427;-81
2021/03/18 00:46:43;;;;;;;1999.90;999.90;;;1.60;99.90;;;;;;4963913;29;20168;-81
2021/03/18 00:49:09;;;;;;;1999.90;999.90;;;1.60;99.90;;;;;;4963577;29;20174;-81
2021/03/18 00:51:34;;;;;;;1999.90;999.90;;;1.60;99.90;;;;;;4963919;29;20172;-81
2021/03/18 00:54:00;;;;;;;1999.90;999.90;;;1.60;99.90;;;;;;4963352;28;20235;-81
2021/03/18 00:56:26;;;;;;;1999.90;999.90;;;1.50;99.90;;;;;;4963380;29;20195;-81
2021/03/18 00:58:51;;;;;;;1999.90;999.90;;;1.40;99.90;;;;;;4963698;29;20175;-80
2021/03/18 01:01:21;;;;;;;1999.90;999.90;;;1.40;99.90;;;;;;4963530;29;20200;-81
2021/03/18 01:03:47;;;;;;;1999.90;999.90;;;1.40;99.90;;;;;;4963110;28;20183;-81
2021/03/18 01:06:18;;;;;;;1999.90;999.90;;;1.40;99.90;;;;;;4963615;29;20179;-81
2021/03/18 01:08:44;;;;;;;1999.90;999.90;;;1.40;99.90;;;;;;4963125;29;20723;-81
2021/03/18 01:11:17;;;;;;;1999.90;999.90;;;1.40;99.90;;;;;;4962981;29;20251;-81
2021/03/18 01:13:48;;;;;;;1999.90;999.90;;;1.40;99.90;;;;;;4964174;28;20184;-80
2021/03/18 01:16:17;;;;;;;1999.90;999.90;;;1.30;99.90;;;;;;4962579;29;20666;-81
2021/03/18 01:18:49;;;;;;;1999.90;999.90;;;1.30;99.90;;;;;;4962330;29;20184;-81
2021/03/18 01:21:17;;;;;;;1999.90;999.90;;;1.30;99.90;;;;;;4963124;29;20552;-80
2021/03/18 01:23:42;;;;;;;1999.90;999.90;;;1.30;99.90;;;;;;4962611;28;20184;-81
2021/03/18 01:26:09;;;;;;;1999.90;999.90;;;1.20;99.90;;;;;;4962739;29;20628;-81
2021/03/18 01:28:36;;;;;;;1999.90;999.90;;;1.20;99.90;;;;;;4945954;29;20307;-81
2021/03/18 01:31:04;;;;;;;1999.90;999.90;;;1.20;99.90;;;;;;4962773;29;20539;-81
2021/03/18 01:33:30;;;;;;;1999.90;999.90;;;1.10;99.90;;;;;;4962857;28;20183;-81
2021/03/18 01:35:56;;;;;;;1999.90;999.90;;;1.10;99.90;;;;;;4962731;29;20239;-81
2021/03/18 01:38:21;;;;;;;1999.90;999.90;;;1.10;99.90;;;;;;4961434;29;20179;-81
2021/03/18 01:40:47;;;;;;;1999.90;999.90;;;1.10;99.90;;;;;;4962513;29;20812;-81
2021/03/18 01:43:13;;;;;;;1999.90;999.90;;;1.00;99.90;;;;;;4962836;28;20191;-81
2021/03/18 01:45:39;;;;;;;1999.90;999.90;;;1.10;99.90;;;;;;4962607;29;20535;-80
2021/03/18 01:48:06;;;;;;;1999.90;999.90;;;1.20;99.90;;;;;;4945321;29;20427;-81
2021/03/18 01:50:34;;;;;;;1999.90;999.90;;;1.20;99.90;;;;;;4961190;28;20183;-81
2021/03/18 01:53:00;;;;;;;1999.90;999.90;;;1.30;99.90;;;;;;4944921;28;20286;-81
2021/03/18 01:55:32;;;;;;;1999.90;999.90;;;1.30;99.90;;;;;;4962516;29;20188;-81
2021/03/18 01:57:58;;;;;;;1999.90;999.90;;;1.40;99.90;;;;;;4962479;29;20168;-81
2021/03/18 02:00:25;;;;;;;1999.90;999.90;;;1.50;99.90;;;;;;4962252;29;20164;-81
2021/03/18 02:02:51;;;;;;;1999.90;999.90;;;1.60;99.90;;;;;;4962491;28;20191;-81
2021/03/18 02:05:18;;;;;;;1999.90;999.90;;;1.60;99.90;;;;;;4962291;29;20584;-80
2021/03/18 02:07:44;;;;;;;1999.90;999.90;;;1.60;99.90;;;;;;4962387;29;20175;-81
2021/03/18 02:10:10;;;;;;;1999.90;999.90;;;1.70;99.90;;;;;;4962475;29;20175;-81
2021/03/18 02:12:37;;;;;;;1999.90;999.90;;;1.80;99.90;;;;;;4944983;29;20426;-81
2021/03/18 02:15:06;;;;;;;1999.90;999.90;;;1.90;99.90;;;;;;4944345;29;20298;-81
2021/03/18 02:17:39;;;;;;;1999.90;999.90;;;1.90;99.90;;;;;;4962031;29;20187;-81
2021/03/18 02:20:26;;;;;;;1999.90;999.90;;;1.90;99.90;;;;;;4961877;29;20172;-81
2021/03/18 02:23:25;;;;;;;1999.90;999.90;;;1.90;99.90;;;;;;4961993;28;20203;-81
2021/03/18 02:26:06;;;;;;;1999.90;999.90;;;1.90;99.90;;;;;;4961779;29;20192;-81
2021/03/18 02:28:56;;;;;;;1999.90;999.90;;;1.80;99.90;;;;;;4961124;29;20156;-81
2021/03/18 02:31:42;;;;;;;1999.90;999.90;;;1.80;99.90;;;;;;4961291;29;20215;-81
2021/03/18 02:34:37;;;;;;;1999.90;999.90;;;1.90;99.90;;;;;;4962218;28;20183;-81
2021/03/18 02:37:13;;;;;;;1999.90;999.90;;;1.90;99.90;;;;;;4961914;29;20175;-81
2021/03/18 02:39:51;;;;;;;1999.90;999.90;;;1.90;99.90;;;;;;4944555;29;20582;-81
2021/03/18 02:42:21;;;;;;;1999.90;999.90;;;1.90;99.90;;;;;;4961400;29;20587;-81
2021/03/18 02:44:51;;;;;;;1999.90;999.90;;;1.90;99.90;;;;;;4961188;28;20559;-81
2021/03/18 02:47:20;;;;;;;1999.90;999.90;;;1.90;99.90;;;;;;4961250;29;20168;-80
2021/03/18 02:49:47;;;;;;;1999.90;999.90;;;1.90;99.90;;;;;;4961194;29;20651;-81
2021/03/18 02:52:19;;;;;;;1999.90;999.90;;;1.90;99.90;;;;;;4960940;29;20172;-81
2021/03/18 02:54:45;;;;;;;1999.90;999.90;;;1.80;99.90;;;;;;4961361;28;20702;-81
2021/03/18 02:57:14;;;;;;;1999.90;999.90;;;1.80;99.90;;;;;;4961083;29;20230;-81
2021/03/18 02:59:43;;;;;;;1999.90;999.90;;;1.70;99.90;;;;;;4960994;29;20171;-81
2021/03/18 03:02:15;;;;;;;1999.90;999.90;;;1.70;99.90;;;;;;4960602;28;20190;-81
2021/03/18 03:04:42;;;;;;;1999.90;999.90;;;1.60;99.90;;;;;;4960318;28;20179;-81
2021/03/18 03:07:11;;;;;;;1999.90;999.90;;;1.60;99.90;;;;;;4960873;29;20623;-81
2021/03/18 03:09:40;;;;;;;1999.90;999.90;;;1.60;99.90;;;;;;4960876;29;20172;-81
2021/03/18 03:12:07;;;;;;;1999.90;999.90;;;1.50;99.90;;;;;;4960691;29;20223;-81
2021/03/18 03:14:34;;;;;;;1999.90;999.90;;;1.60;99.90;;;;;;4960279;28;20187;-81
2021/03/18 03:17:02;;;;;;;1999.90;999.90;;;1.70;99.90;;;;;;4960930;29;20161;-81
2021/03/18 03:19:29;;;;;;;1999.90;999.90;;;1.70;99.90;;;;;;4960593;29;20164;-81
2021/03/18 03:21:56;;;;;;;1999.90;999.90;;;1.80;99.90;;;;;;4961053;29;20219;-80
2021/03/18 03:24:23;;;;;;;1999.90;999.90;;;1.80;99.90;;;;;;4960851;28;20552;-80
2021/03/18 03:26:52;;;;;;;1999.90;999.90;;;1.80;99.90;;;;;;4960068;29;20164;-81
2021/03/18 03:29:17;;;;;;;1999.90;999.90;;;1.80;99.90;;;;;;4959711;29;20172;-81
2021/03/18 03:31:44;;;;;;;1999.90;999.90;;;1.80;99.90;;;;;;4959038;29;20171;-81
2021/03/18 03:34:10;;;;;;;1999.90;999.90;;;1.80;99.90;;;;;;4959787;28;20434;-81
2021/03/18 03:36:36;;;;;;;1999.90;999.90;;;1.90;99.90;;;;;;4942693;29;20207;-81
2021/03/18 03:39:07;;;;;;;1999.90;999.90;;;2.00;99.90;;;;;;4959523;29;20172;-80
2021/03/18 03:41:34;;;;;;;1999.90;999.90;;;2.10;99.90;;;;;;4959526;29;20206;-80
2021/03/18 03:44:03;;;;;;;1999.90;999.90;;;2.10;99.90;;;;;;4959741;28;20195;-81
2021/03/18 03:46:28;;;;;;;1999.90;999.90;;;2.30;99.90;;;;;;4960241;29;20164;-80
2021/03/18 03:48:54;;;;;;;1999.90;999.90;;;2.30;99.90;;;;;;4959745;29;20645;-81
2021/03/18 03:51:20;;;;;;;1999.90;999.90;;;2.40;99.90;;;;;;4960101;29;20176;-81
2021/03/18 03:53:59;;;;;;;1999.90;999.90;;;2.40;99.90;;;;;;4959970;28;20242;-80
2021/03/18 03:56:28;;;;;;;1999.90;999.90;;;2.50;99.90;;;;;;4960012;29;20196;-81
2021/03/18 03:59:04;;;;;;;1999.90;999.90;;;2.50;99.90;;;;;;4959590;29;20175;-81
2021/03/18 04:01:45;;;;;;;1999.90;999.90;;;2.50;99.90;;;;;;4942362;29;20639;-80
2021/03/18 04:04:28;;;;;;;1999.90;999.90;;;2.50;99.90;;;;;;4959527;28;20188;-81
2021/03/18 04:06:57;;;;;;;1999.90;999.90;;;2.60;99.90;;;;;;4960316;29;20191;-80
2021/03/18 04:09:24;;;;;;;1999.90;999.90;;;2.60;99.90;;;;;;4959436;29;20202;-81
2021/03/18 04:11:52;;;;;;;1999.90;999.90;;;2.60;99.90;;;;;;4959741;29;20176;-81
2021/03/18 04:14:21;;;;;;;1999.90;999.90;;;2.60;99.90;;;;;;4942030;29;20227;-81
2021/03/18 04:16:48;;;;;;;1999.90;999.90;;;2.50;99.90;;;;;;4959396;29;20210;-81
2021/03/18 04:19:18;;;;;;;1999.90;999.90;;;2.50;99.90;;;;;;4959797;29;20175;-80
2021/03/18 04:21:47;;;;;;;1999.90;999.90;;;2.50;99.90;;;;;;4960064;29;20164;-81
2021/03/18 04:24:14;;;;;;;1999.90;999.90;;;2.50;99.90;;;;;;4959361;28;20175;-81
2021/03/18 04:26:42;;;;;;;1999.90;999.90;;;2.40;99.90;;;;;;4959698;29;20171;-81
2021/03/18 04:29:09;;;;;;;1999.90;999.90;;;2.40;99.90;;;;;;4959451;29;20164;-81
2021/03/18 04:31:40;;;;;;;1999.90;999.90;;;2.40;99.90;;;;;;4959382;29;20251;-80
2021/03/18 04:34:07;;;;;;;1999.90;999.90;;;2.40;99.90;;;;;;4960084;28;20636;-81
2021/03/18 04:36:33;;;;;;;1999.90;999.90;;;2.40;99.90;;;;;;4960757;29;20226;-81
2021/03/18 04:39:01;;;;;;;1999.90;999.90;;;2.40;99.90;;;;;;4959854;29;20168;-80
2021/03/18 04:41:28;;;;;;;1999.90;999.90;;;2.40;99.90;;;;;;4943529;29;20172;-81
2021/03/18 04:43:55;;;;;;;1999.90;999.90;;;2.40;99.90;;;;;;4942713;29;20599;-80
2021/03/18 04:46:22;;;;;;;1999.90;999.90;;;2.40;99.90;;;;;;4959195;29;20612;-81
2021/03/18 04:48:50;;;;;;;1999.90;999.90;;;2.40;99.90;;;;;;4959151;29;20587;-80
2021/03/18 04:51:15;;;;;;;1999.90;999.90;;;2.30;99.90;;;;;;4959333;29;20255;-81
2021/03/18 04:53:41;;;;;;;1999.90;999.90;;;2.40;99.90;;;;;;4959247;28;20219;-81
2021/03/18 04:56:08;;;;;;;1999.90;999.90;;;2.40;99.90;;;;;;4958900;29;20184;-81
2021/03/18 04:58:40;;;;;;;1999.90;999.90;;;2.40;99.90;;;;;;4961211;29;20532;-80
2021/03/18 05:01:07;;;;;;;1999.90;999.90;;;2.40;99.90;;;;;;4962941;29;20635;-81
2021/03/18 05:03:34;;;;;;;1999.90;999.90;;;2.40;99.90;;;;;;4963153;28;20195;-80
2021/03/18 05:06:04;;;;;;;1999.90;999.90;;;2.40;99.90;;;;;;4961951;29;20176;-80
2021/03/18 05:08:34;;;;;;;1999.90;999.90;;;2.50;99.90;;;;;;4962583;29;20160;-80
2021/03/18 05:11:00;;;;;;;1999.90;999.90;;;2.50;99.90;;;;;;4963079;29;20195;-80
2021/03/18 05:13:30;;;;;;;1999.90;999.90;;;2.60;99.90;;;;;;4962882;28;20723;-80
2021/03/18 05:15:56;;;;;;;1999.90;999.90;;;2.50;99.90;;;;;;4960949;29;20208;-80
2021/03/18 05:18:24;;;;;;;1999.90;999.90;;;2.50;99.90;;;;;;4959090;29;20168;-81
2021/03/18 05:20:50;;;;;;;1999.90;999.90;;;2.50;99.90;;;;;;4959705;29;20171;-80
2021/03/18 05:23:17;;;;;;;1999.90;999.90;;;2.50;99.90;;;;;;4959138;28;20184;-80
2021/03/18 05:25:45;;;;;;;1999.90;999.90;;;2.60;99.90;;;;;;4960978;28;20404;-81
2021/03/18 05:28:11;;;;;;;1999.90;999.90;;;2.60;99.90;;;;;;4961947;29;20195;-80
2021/03/18 05:30:37;;;;;;;1999.90;999.90;;;2.50;99.90;;;;;;4962218;29;20168;-81
2021/03/18 05:33:04;;;;;;;1999.90;999.90;;;2.50;99.90;;;;;;4962311;28;20279;-80
2021/03/18 05:35:32;;;;;;;1999.90;999.90;;;2.50;99.90;;;;;;4962340;29;20446;-81
2021/03/18 05:37:58;;;;;;;1999.90;999.90;;;2.50;99.90;;;;;;4962383;29;20171;-81
2021/03/18 05:40:24;;;;;;;1999.90;999.90;;;2.50;99.90;;;;;;4962460;29;20168;-81
2021/03/18 05:42:50;;;;;;;1999.90;999.90;;;2.60;99.90;;;;;;4962274;28;20667;-80
2021/03/18 05:45:17;;;;;;;1999.90;999.90;;;2.60;99.90;;;;;;4962203;29;20168;-80
2021/03/18 05:47:44;;;;;;;1999.90;999.90;;;2.50;99.90;;;;;;4944873;29;20203;-80
2021/03/18 05:50:13;;;;;;;1999.90;999.90;;;2.50;99.90;;;;;;4962177;29;20172;-80
2021/03/18 05:52:39;;;;;;;1999.90;999.90;;;2.50;99.90;;;;;;4961667;29;20176;-80
2021/03/18 05:55:07;;;;;;;1999.90;999.90;;;2.50;99.90;;;;;;4961592;28;20271;-80
2021/03/18 05:57:34;;;;;;;1999.90;999.90;;;2.50;99.90;;;;;;4962205;29;20168;-80
2021/03/18 06:00:02;;;;;;;1999.90;999.90;;;2.60;99.90;;;;;;4962407;29;20493;-80
2021/03/18 06:02:33;;;;;;;1999.90;999.90;;;2.70;99.90;;;;;;4961402;29;20531;-81
2021/03/18 06:05:02;;;;;;;1999.90;999.90;;;2.80;99.90;;;;;;4944298;29;20630;-81
2021/03/18 06:07:27;;;;;;;1999.90;999.90;;;2.70;99.90;;;;;;4961476;29;20164;-80
2021/03/18 06:09:55;;;;;;;1999.90;999.90;;;2.70;99.90;;;;;;4961444;29;20584;-80
2021/03/18 06:12:21;;;;;;;1999.90;999.90;;;2.80;99.90;;;;;;4962599;29;20172;-80
2021/03/18 06:17:18;;;;;;;1999.90;999.90;;;2.80;99.90;;;;;;4960204;28;20212;-80
2021/03/18 06:19:54;;;;;;;1999.90;999.90;;;2.80;99.90;;;;;;4960034;29;20628;-80
2021/03/18 06:22:47;;;;;;;1999.90;999.90;;;2.90;99.90;;;;;;4961650;29;20159;-81
2021/03/18 06:25:33;;;;;;;1999.90;999.90;;;2.80;99.90;;;;;;4920707;29;20185;-81
2021/03/18 06:28:20;;;;;;;1999.90;999.90;;;2.90;99.90;;;;;;4942733;29;20188;-81
2021/03/18 06:31:05;;;;;;;1999.90;999.90;;;2.90;99.90;;;;;;4943118;29;20627;-81
2021/03/18 06:33:42;;;;;;;1999.90;999.90;;;2.90;99.90;;;;;;4941901;29;20274;-81
2021/03/18 06:36:26;;;;;;;1999.90;999.90;;;3.00;99.90;;;;;;4942438;29;20637;-81
2021/03/18 06:39:09;;;;;;;1999.90;999.90;;;3.00;99.90;;;;;;4942215;29;20258;-81
2021/03/18 06:41:47;;;;;;;1999.90;999.90;;;3.10;99.90;;;;;;4942669;29;20662;-81
2021/03/18 06:44:24;;;;;;;1999.90;999.90;;;3.10;99.90;;;;;;4941966;29;20263;-81
2021/03/18 06:46:54;;;;;;;1999.90;999.90;;;3.20;99.90;;;;;;4943038;29;20224;-81
2021/03/18 06:49:22;;;;;;;1999.90;999.90;;;3.30;99.90;;;;;;4942455;29;20161;-79
2021/03/18 06:52:12;;;;;;;1999.90;999.90;;;3.20;99.90;;;;;;4941783;29;20594;-81
2021/03/18 06:54:42;;;;;;;1999.90;999.90;;;3.20;99.90;;;;;;4941998;29;20188;-81
2021/03/18 06:57:08;;;;;;;1999.90;999.90;;;3.30;99.90;;;;;;4940837;29;20203;-81
2021/03/18 06:59:38;;;;;;;1999.90;999.90;;;3.20;99.90;;;;;;4940664;29;20176;-81
2021/03/18 07:02:13;;;;;;;1999.90;999.90;;;3.20;99.90;;;;;;4941679;29;20608;-81
2021/03/18 07:04:40;;;;;;;1999.90;999.90;;;3.30;99.90;;;;;;4940762;29;20211;-81
2021/03/18 07:07:08;;;;;;;1999.90;999.90;;;3.40;99.90;;;;;;4941932;29;20165;-81
2021/03/18 07:09:35;;;;;;;1999.90;999.90;;;3.60;99.90;;;;;;4940474;29;20633;-81
2021/03/18 07:12:06;;;;;;;1999.90;999.90;;;3.70;99.90;;;;;;4940738;29;20168;-81
2021/03/18 07:14:41;;;;;;;1999.90;999.90;;;3.80;99.90;;;;;;4940369;29;20199;-81
2021/03/18 07:17:08;;;;;;;1999.90;999.90;;;3.90;99.90;;;;;;4940118;29;20559;-81
2021/03/18 07:19:35;;;;;;;1999.90;999.90;;;4.00;99.90;;;;;;4940162;29;20259;-81
2021/03/18 07:22:02;;;;;;;1999.90;999.90;;;4.10;99.90;;;;;;4940321;29;20177;-81
2021/03/18 07:24:29;;;;;;;1999.90;999.90;;;4.20;99.90;;;;;;4939712;29;20180;-81
2021/03/18 07:26:57;;;;;;;1999.90;999.90;;;4.20;99.90;;;;;;4939834;29;20227;-81
2021/03/18 07:29:32;;;;;;;1999.90;999.90;;;4.30;99.90;;;;;;4939704;29;20164;-81
2021/03/18 07:31:58;;;;;;;1999.90;999.90;;;4.40;99.90;;;;;;4922516;29;20548;-81
2021/03/18 07:34:27;;;;;;;1999.90;999.90;;;4.50;99.90;;;;;;4939848;29;20251;-82
2021/03/18 07:37:01;;;;;;;1999.90;999.90;;;4.60;99.90;;;;;;4939611;29;20204;-81
2021/03/18 07:39:26;;;;;;;1999.90;999.90;;;4.70;99.90;;;;;;4939895;29;20152;-81
2021/03/18 07:41:53;;;;;;;1999.90;999.90;;;4.70;99.90;;;;;;4939496;29;20172;-81
2021/03/18 07:44:20;;;;;;;1999.90;999.90;;;4.80;99.90;;;;;;4939579;29;20195;-81
2021/03/18 07:46:47;;;;;;;1999.90;999.90;;;4.80;99.90;;;;;;4939772;29;20176;-82
2021/03/18 07:49:18;;;;;;;1999.90;999.90;;;4.80;99.90;;;;;;4938602;29;20176;-81
2021/03/18 07:51:47;;;;;;;1999.90;999.90;;;4.80;99.90;;;;;;4940729;29;20160;-81
2021/03/18 07:54:17;;;;;;;1999.90;999.90;;;4.80;99.90;;;;;;4940191;29;20212;-81
2021/03/18 07:56:47;;;;;;;1999.90;999.90;;;4.90;99.90;;;;;;4939063;29;20200;-82
2021/03/18 07:59:13;;;;;;;1999.90;999.90;;;4.90;99.90;;;;;;4939550;29;20159;-81
2021/03/18 08:01:42;;;;;;;1999.90;999.90;;;4.80;99.90;;;;;;4939825;29;20164;-81
2021/03/18 08:04:10;;;;;;;1999.90;999.90;;;4.80;99.90;;;;;;4938327;29;20445;-81
2021/03/18 08:06:39;;;;;;;1999.90;999.90;;;4.80;99.90;;;;;;4940059;29;20164;-81
2021/03/18 08:09:14;;;;;;;1999.90;999.90;;;4.80;99.90;;;;;;4940015;29;20172;-80
2021/03/18 08:11:42;;;;;;;1999.90;999.90;;;4.80;99.90;;;;;;4939494;29;20268;-81
2021/03/18 08:14:20;;;;;;;1999.90;999.90;;;4.90;99.90;;;;;;4938950;29;20275;-80
2021/03/18 08:16:46;;;;;;;1999.90;999.90;;;4.80;99.90;;;;;;4940762;29;20204;-80
2021/03/18 08:19:14;;;;;;;1999.90;999.90;;;4.80;99.90;;;;;;4940735;29;20165;-80
2021/03/18 08:21:42;;;;;;;1999.90;999.90;;;4.80;99.90;;;;;;4940067;29;20173;-80
2021/03/18 08:24:12;;;;;;;1999.90;999.90;;;4.80;99.90;;;;;;4923236;29;20192;-80
2021/03/18 08:26:44;;;;;;;1999.90;999.90;;;4.80;99.90;;;;;;4940839;29;20169;-81
2021/03/18 08:29:16;;;;;;;1999.90;999.90;;;4.80;99.90;;;;;;4941184;29;20180;-80
2021/03/18 08:31:57;;;;;;;1999.90;999.90;;;4.90;99.90;;;;;;4940483;29;20157;-81
2021/03/18 08:34:52;;;;;;;1999.90;999.90;;;5.00;99.90;;;;;;4923886;29;20684;-80
2021/03/18 08:37:44;;;;;;;1999.90;999.90;;;5.10;99.90;;;;;;4940432;29;20165;-81
2021/03/18 08:40:19;;;;;;;1999.90;999.90;;;5.10;99.90;;;;;;4939778;29;20224;-80
2021/03/18 08:42:46;;;;;;;1999.90;999.90;;;5.10;99.90;;;;;;4939840;29;20250;-79
2021/03/18 08:45:32;;;;;;;1999.90;999.90;;;5.20;99.90;;;;;;4940510;29;20676;-79
2021/03/18 08:48:08;;;;;;;1999.90;999.90;;;5.20;99.90;;;;;;4940298;29;20184;-80
2021/03/18 08:50:34;;;;;;;1999.90;999.90;;;5.20;99.90;;;;;;4940475;29;20153;-81
2021/03/18 08:53:03;;;;;;;1999.90;999.90;;;5.30;99.90;;;;;;4940362;29;20196;-81
2021/03/18 08:55:38;;;;;;;1999.90;999.90;;;5.40;99.90;;;;;;4940083;29;20203;-81
2021/03/18 08:58:05;;;;;;;1999.90;999.90;;;5.50;99.90;;;;;;4939780;29;20640;-81
2021/03/18 09:00:32;;;;;;;1999.90;999.90;;;5.70;99.90;;;;;;4941943;29;20168;-81
2021/03/18 09:02:58;;;;;;;1999.90;999.90;;;5.70;99.90;;;;;;4943729;29;20165;-81
2021/03/18 09:05:25;;;;;;;1999.90;999.90;;;5.70;99.90;;;;;;4943973;29;20204;-81
2021/03/18 09:08:02;;;;;;;1999.90;999.90;;;5.80;99.90;;;;;;4943688;29;20169;-81
2021/03/18 09:10:30;;;;;;;1999.90;999.90;;;5.70;99.90;;;;;;4944678;29;20504;-81
2021/03/18 09:13:00;;;;;;;1999.90;999.90;;;5.70;99.90;;;;;;4943839;29;20644;-81
2021/03/18 09:15:30;;;;;;;1999.90;999.90;;;5.80;99.90;;;;;;4943419;29;20228;-81
2021/03/18 09:17:59;;;;;;;1999.90;999.90;;;5.90;99.90;;;;;;4943481;29;20161;-80
2021/03/18 09:20:29;;;;;;;1999.90;999.90;;;5.90;99.90;;;;;;4943639;29;20175;-80
2021/03/18 09:23:15;;;;;;;1999.90;999.90;;;5.90;99.90;;;;;;4926358;29;20201;-81
2021/03/18 09:25:46;;;;;;;1999.90;999.90;;;5.80;99.90;;;;;;4943590;29;20156;-81
2021/03/18 09:28:13;;;;;;;1999.90;999.90;;;5.90;99.90;;;;;;4926975;29;20169;-81
2021/03/18 09:30:42;;;;;;;1999.90;999.90;;;5.80;99.90;;;;;;4943830;29;20568;-81
2021/03/18 09:33:29;;;;;;;1999.90;999.90;;;5.90;99.90;;;;;;4926512;29;20192;-79
2021/03/18 09:36:13;;;;;;;1999.90;999.90;;;5.60;99.90;;;;;;4943771;29;20215;-81
2021/03/18 09:38:40;;;;;;;1999.90;999.90;;;5.60;99.90;;;;;;4943932;29;20180;-80
2021/03/18 09:41:06;;;;;;;1999.90;999.90;;;5.80;99.90;;;;;;4943782;29;20653;-80
2021/03/18 09:43:31;;;;;;;1999.90;999.90;;;5.90;99.90;;;;;;4927213;29;20192;-81
2021/03/18 09:46:04;;;;;;;1999.90;999.90;;;6.00;99.90;;;;;;4943592;29;20437;-81
2021/03/18 09:48:34;;;;;;;1999.90;999.90;;;6.00;99.90;;;;;;4926671;29;20456;-80
2021/03/18 09:51:05;;;;;;;1999.90;999.90;;;6.20;99.90;;;;;;4943316;29;20169;-81
2021/03/18 09:53:31;;;;;;;1999.90;999.90;;;6.20;99.90;;;;;;4942549;29;20200;-80
2021/03/18 09:56:12;;;;;;;1999.90;999.90;;;6.40;99.90;;;;;;4942578;29;20548;-81
2021/03/18 09:58:40;;;;;;;1999.90;999.90;;;6.40;99.90;;;;;;4941601;29;20188;-80
2021/03/18 10:01:23;;;;;;;1999.90;999.90;;;6.40;99.90;;;;;;4942876;29;20187;-81
2021/03/18 10:04:11;;;;;;;1999.90;999.90;;;6.40;99.90;;;;;;4942210;29;20342;-81
2021/03/18 10:06:54;;;;;;;1999.90;999.90;;;6.50;99.90;;;;;;4942587;29;20165;-81
2021/03/18 10:09:31;;;;;;;1999.90;999.90;;;6.70;99.90;;;;;;4941355;29;20172;-81
2021/03/18 10:12:32;;;;;;;;;;;;;;;;;;;;;
2021/03/18 10:16:01;;;;;;;1999.90;999.90;;;6.90;99.90;;;;;;4941745;29;20278;-81
2021/03/18 10:22:46;;;;;;;;;;;;;;;;;;;;;
2021/03/18 10:29:37;;;;;;;1999.90;999.90;;;7.30;99.90;;;;;;4881947;29;20182;-81
2021/03/18 10:36:35;;;;;;;1999.90;999.90;;;7.70;99.90;;;;;;4863965;29;20208;-79
2021/03/18 10:43:17;;;;;;;1999.90;999.90;;;7.90;99.90;;;;;;4880386;29;20165;-81
2021/03/18 10:46:37;;;;;;;1999.90;999.90;;;7.80;99.90;;;;;;4902707;29;20208;-82
2021/03/18 10:49:44;;;;;;;1999.90;999.90;;;7.60;99.90;;;;;;4828628;29;20267;-81
2021/03/18 10:52:19;;;;;;;1999.90;999.90;;;8.00;99.90;;;;;;4884508;29;20366;-79
2021/03/18 10:55:50;;;;;;;1999.90;999.90;;;8.30;99.90;;;;;;4886300;29;20208;-80
2021/03/18 10:58:34;;;;;;;1999.90;999.90;;;8.40;99.90;;;;;;4856985;29;20173;-81
2021/03/18 11:01:35;;;;;;;1999.90;999.90;;;8.60;99.90;;;;;;4904027;29;20182;-81
2021/03/18 11:05:00;;;;;;;1999.90;999.90;;;8.80;99.90;;;;;;4841950;29;20697;-81
2021/03/18 11:07:35;;;;;;;1999.90;999.90;;;8.90;99.90;;;;;;4880080;29;20186;-82
2021/03/18 11:10:26;;;;;;;1999.90;999.90;;;8.90;99.90;;;;;;4883102;29;20173;-81
2021/03/18 11:13:45;;;;;;;1999.90;999.90;;;8.80;99.90;;;;;;4883389;29;20175;-82
2021/03/18 11:16:51;;;;;;;1999.90;999.90;;;8.60;99.90;;;;;;4883260;29;20202;-82
2021/03/18 11:19:26;;;;;;;1999.90;999.90;;;8.50;99.90;;;;;;4911832;29;20263;-82
2021/03/18 11:22:48;;;;;;;;;;;;;;;;;;;;;
2021/03/18 11:35:51;;;;;;;1999.90;999.90;;;9.80;99.90;;;;;;4855534;29;20617;-79
2021/03/18 11:38:37;;;;;;;1999.90;999.90;;;9.80;99.90;;;;;;4940947;29;20536;-79
2021/03/18 11:41:33;;;;;;;1999.90;999.90;;;9.80;99.90;;;;;;4923320;29;20174;-79
2021/03/18 11:44:46;;;;;;;1999.90;999.90;;;9.70;97.10;;;;;;4917625;29;20203;-79
2021/03/18 11:47:39;;;;;;;1999.90;999.90;;;9.70;99.90;;;;;;4939639;29;20191;-79
2021/03/18 11:50:38;;;;;;;1999.90;999.90;;;9.50;98.10;;;;;;4922954;29;20173;-80
2021/03/18 11:53:42;;;;;;;1999.90;999.90;;;9.40;96.80;;;;;;4922912;29;20267;-79
2021/03/18 11:56:11;;;;;;;1999.90;999.90;;;9.30;98.60;;;;;;4939429;29;20208;-79
2021/03/18 11:59:04;;;;;;;1999.90;999.90;;;9.40;97.10;;;;;;4942801;29;20683;-79
2021/03/18 12:01:52;;;;;;;;;;;;;;;;;;;;;
2021/03/18 12:04:30;;;;;;;1999.90;999.90;;;9.40;96.20;;;;;;4863927;29;20337;-79
2021/03/18 12:07:01;;;;;;;1999.90;999.90;;;9.30;90.70;;;;;;4924079;29;20180;-80
2021/03/18 12:09:47;;;;;;;1999.90;999.90;;;9.40;87.40;;;;;;4942392;29;20252;-80
2021/03/18 12:12:30;;;;;;;1999.90;999.90;;;9.30;87.60;;;;;;4941175;29;20160;-80
2021/03/18 12:14:59;;;;;;;1999.90;999.90;;;9.30;91.10;;;;;;4940224;29;20191;-78
2021/03/18 12:18:52;;;;;;;1999.90;999.90;;;9.20;77.00;;;;;;4937174;29;20169;-79
2021/03/18 12:21:21;;;;;;;1999.90;999.90;;;9.20;88.30;;;;;;4928335;29;20184;-78
2021/03/18 12:24:44;;;;;;;1999.90;999.90;;;9.30;87.90;;;;;;4937559;29;20556;-80
2021/03/18 12:27:36;;;;;;;1999.90;999.90;;;9.40;85.50;;;;;;4934072;29;20647;-78
2021/03/18 12:30:46;;;;;;;1999.90;999.90;;;9.30;86.00;;;;;;4903342;29;20555;-78
2021/03/18 12:36:29;;;;;;;1999.90;999.90;;;9.20;74.40;;;;;;4977016;23;20230;-79
2021/03/18 12:39:57;;;;;;;;;;;;;;;;;;;;;
2021/03/18 12:47:51;;;;;;;1999.90;999.90;;;9.00;73.40;;;;;;4961674;28;20211;-81
2021/03/18 12:50:20;;;;;;;1999.90;999.90;;;9.00;80.50;;;;;;5047462;23;20257;-86
2021/03/18 12:52:51;;;;;;;1999.90;999.90;;;8.90;82.50;;;;;;4990698;28;20227;-87
2021/03/18 12:55:17;;;;;;;1999.90;999.90;;;9.00;85.60;;;;;;4989373;28;20558;-84
2021/03/18 12:57:50;;;;;;;1999.90;999.90;;;9.10;82.10;;;;;;4985998;28;20163;-85
2021/03/18 13:00:24;;;;;;;1999.90;999.90;;;9.20;80.60;;;;;;4987751;28;20234;-85
2021/03/18 13:02:50;;;;;;;1999.90;999.90;;;9.30;78.50;;;;;;4967027;28;20522;-84
2021/03/18 13:05:20;;;;;;;1999.90;999.90;;;9.40;78.00;;;;;;4988272;28;20167;-86
2021/03/18 13:07:46;;;;;;;1999.90;999.90;;;9.60;83.90;;;;;;4989057;28;20198;-86
2021/03/18 13:10:15;;;;;;;1999.90;999.90;;;9.50;81.40;;;;;;4972165;28;20175;-86
2021/03/18 13:12:44;;;;;;;1999.90;999.90;;;9.30;81.80;;;;;;4971467;28;20200;-86
2021/03/18 13:15:14;;;;;;;1999.90;999.90;;;9.50;88.80;;;;;;4969535;28;20203;-86
2021/03/18 13:17:40;;;;;;;1999.90;999.90;;;9.50;89.40;;;;;;4969249;28;20179;-85
2021/03/18 13:20:12;;;;;;;1999.90;999.90;;;9.50;87.80;;;;;;4968165;28;20167;-85
2021/03/18 13:22:42;;;;;;;1999.90;999.90;;;9.40;84.30;;;;;;4969676;28;20156;-85
2021/03/18 13:25:11;;;;;;;1999.90;999.90;;;9.30;87.40;;;;;;4968895;28;20197;-86
2021/03/18 13:27:38;;;;;;;1999.90;999.90;;;9.20;86.50;;;;;;4968775;28;20168;-86